Terminal Aerodrome Forecast
Issued by NWS St Louis, MO

Home | Current Version | Previous Version | Text Only | Print | Product List | Glossary On
Versions: 1 2 3 4 5 6 7 8 9 10 11 12 13 14 15 16 17 18 19 20 21 22 23 24 25 26 27
000
FTUS43 KLSX 250858 AAA
TAFSTL
TAF AMD
KSTL 250858Z 2509/2612 18005KT P6SM SCT060 BKN250
     FM251400 20007KT P6SM SCT030 BKN120
     FM251700 23007KT P6SM VCTS BKN040CB
     FM252300 20006KT P6SM SCT050 BKN120=

USA.gov is the U.S. government's official web portal to all federal, state and local government web resources and services.